sensor_id;sensor_type;location;lat;lon;timestamp;P1;durP1;ratioP1;P2;durP2;ratioP2
78622;SDS011;67943;54.412;9.502;2023-03-25T00:04:26;7.07;;;2.63;;
78622;SDS011;67943;54.412;9.502;2023-03-25T00:09:27;11.60;;;2.20;;
78622;SDS011;67943;54.412;9.502;2023-03-25T00:14:29;8.35;;;2.15;;
78622;SDS011;67943;54.412;9.502;2023-03-25T00:19:33;12.27;;;3.35;;
78622;SDS011;67943;54.412;9.502;2023-03-25T00:24:35;10.82;;;2.92;;
78622;SDS011;67943;54.412;9.502;2023-03-25T00:29:36;7.80;;;2.53;;
78622;SDS011;67943;54.412;9.502;2023-03-25T00:34:39;9.57;;;3.13;;
78622;SDS011;67943;54.412;9.502;2023-03-25T00:39:46;10.15;;;3.08;;
78622;SDS011;67943;54.412;9.502;2023-03-25T00:44:48;8.60;;;2.58;;
78622;SDS011;67943;54.412;9.502;2023-03-25T00:49:51;9.77;;;2.85;;
78622;SDS011;67943;54.412;9.502;2023-03-25T00:54:52;10.77;;;2.67;;
78622;SDS011;67943;54.412;9.502;2023-03-25T00:59:54;8.10;;;3.08;;
78622;SDS011;67943;54.412;9.502;2023-03-25T01:04:57;11.98;;;2.88;;
78622;SDS011;67943;54.412;9.502;2023-03-25T01:09:59;9.35;;;2.72;;
78622;SDS011;67943;54.412;9.502;2023-03-25T01:15:00;9.68;;;2.55;;
78622;SDS011;67943;54.412;9.502;2023-03-25T01:20:03;7.18;;;3.00;;
78622;SDS011;67943;54.412;9.502;2023-03-25T01:25:08;10.43;;;3.60;;
78622;SDS011;67943;54.412;9.502;2023-03-25T01:30:10;11.48;;;3.63;;
78622;SDS011;67943;54.412;9.502;2023-03-25T01:35:14;12.60;;;4.10;;
78622;SDS011;67943;54.412;9.502;2023-03-25T01:40:16;12.48;;;4.07;;
78622;SDS011;67943;54.412;9.502;2023-03-25T01:45:23;8.48;;;3.80;;
78622;SDS011;67943;54.412;9.502;2023-03-25T01:50:27;9.43;;;3.42;;
78622;SDS011;67943;54.412;9.502;2023-03-25T01:55:31;17.13;;;4.38;;
78622;SDS011;67943;54.412;9.502;2023-03-25T02:00:36;13.40;;;3.95;;
78622;SDS011;67943;54.412;9.502;2023-03-25T02:05:43;13.40;;;4.18;;
78622;SDS011;67943;54.412;9.502;2023-03-25T02:10:49;12.40;;;3.22;;
78622;SDS011;67943;54.412;9.502;2023-03-25T02:15:57;12.30;;;3.05;;
78622;SDS011;67943;54.412;9.502;2023-03-25T02:26:59;15.80;;;3.22;;
78622;SDS011;67943;54.412;9.502;2023-03-25T02:32:16;14.07;;;3.15;;
78622;SDS011;67943;54.412;9.502;2023-03-25T02:37:33;15.70;;;3.33;;
78622;SDS011;67943;54.412;9.502;2023-03-25T02:42:59;12.65;;;3.25;;
78622;SDS011;67943;54.412;9.502;2023-03-25T02:48:05;14.40;;;3.60;;
78622;SDS011;67943;54.412;9.502;2023-03-25T02:53:13;9.13;;;3.35;;
78622;SDS011;67943;54.412;9.502;2023-03-25T02:58:20;10.63;;;3.22;;
78622;SDS011;67943;54.412;9.502;2023-03-25T03:03:23;13.23;;;3.70;;
78622;SDS011;67943;54.412;9.502;2023-03-25T03:08:33;12.52;;;3.67;;
78622;SDS011;67943;54.412;9.502;2023-03-25T03:13:58;10.20;;;4.30;;
78622;SDS011;67943;54.412;9.502;2023-03-25T03:19:13;18.20;;;4.68;;
78622;SDS011;67943;54.412;9.502;2023-03-25T03:24:28;10.38;;;4.05;;
78622;SDS011;67943;54.412;9.502;2023-03-25T03:29:33;15.00;;;3.58;;
78622;SDS011;67943;54.412;9.502;2023-03-25T03:34:37;15.45;;;3.85;;
78622;SDS011;67943;54.412;9.502;2023-03-25T03:39:47;13.82;;;3.30;;
78622;SDS011;67943;54.412;9.502;2023-03-25T03:44:51;16.92;;;3.17;;
78622;SDS011;67943;54.412;9.502;2023-03-25T03:49:57;14.85;;;3.25;;
78622;SDS011;67943;54.412;9.502;2023-03-25T03:55:04;15.70;;;3.20;;
78622;SDS011;67943;54.412;9.502;2023-03-25T04:00:14;11.63;;;3.10;;
78622;SDS011;67943;54.412;9.502;2023-03-25T04:05:18;13.57;;;3.22;;
78622;SDS011;67943;54.412;9.502;2023-03-25T04:10:26;14.63;;;3.10;;
78622;SDS011;67943;54.412;9.502;2023-03-25T04:15:39;16.85;;;3.72;;
78622;SDS011;67943;54.412;9.502;2023-03-25T04:20:41;14.45;;;3.13;;
78622;SDS011;67943;54.412;9.502;2023-03-25T04:25:45;19.35;;;4.00;;
78622;SDS011;67943;54.412;9.502;2023-03-25T04:30:48;13.00;;;3.50;;
78622;SDS011;67943;54.412;9.502;2023-03-25T04:35:54;13.90;;;4.53;;
78622;SDS011;67943;54.412;9.502;2023-03-25T04:40:57;14.63;;;4.13;;
78622;SDS011;67943;54.412;9.502;2023-03-25T04:45:59;15.80;;;5.10;;
78622;SDS011;67943;54.412;9.502;2023-03-25T04:51:01;11.30;;;4.28;;
78622;SDS011;67943;54.412;9.502;2023-03-25T04:56:06;18.33;;;5.40;;
78622;SDS011;67943;54.412;9.502;2023-03-25T05:01:19;20.30;;;5.15;;
78622;SDS011;67943;54.412;9.502;2023-03-25T05:06:23;25.52;;;4.97;;
78622;SDS011;67943;54.412;9.502;2023-03-25T05:11:26;23.15;;;4.15;;
78622;SDS011;67943;54.412;9.502;2023-03-25T05:16:28;19.95;;;5.35;;
78622;SDS011;67943;54.412;9.502;2023-03-25T05:21:29;19.65;;;4.20;;
78622;SDS011;67943;54.412;9.502;2023-03-25T05:26:33;15.23;;;4.05;;
78622;SDS011;67943;54.412;9.502;2023-03-25T05:31:34;20.80;;;3.60;;
78622;SDS011;67943;54.412;9.502;2023-03-25T05:36:36;19.92;;;3.47;;
78622;SDS011;67943;54.412;9.502;2023-03-25T05:41:40;23.00;;;4.47;;
78622;SDS011;67943;54.412;9.502;2023-03-25T05:46:44;21.58;;;3.60;;
78622;SDS011;67943;54.412;9.502;2023-03-25T05:51:46;17.27;;;3.67;;
78622;SDS011;67943;54.412;9.502;2023-03-25T05:56:54;24.27;;;3.65;;
78622;SDS011;67943;54.412;9.502;2023-03-25T06:01:56;32.13;;;4.43;;
78622;SDS011;67943;54.412;9.502;2023-03-25T06:06:57;22.98;;;3.65;;
78622;SDS011;67943;54.412;9.502;2023-03-25T06:12:00;18.95;;;3.95;;
78622;SDS011;67943;54.412;9.502;2023-03-25T06:17:03;23.08;;;3.78;;
78622;SDS011;67943;54.412;9.502;2023-03-25T06:22:04;24.85;;;3.65;;
78622;SDS011;67943;54.412;9.502;2023-03-25T06:27:11;22.48;;;3.65;;
78622;SDS011;67943;54.412;9.502;2023-03-25T06:32:14;16.55;;;3.47;;
78622;SDS011;67943;54.412;9.502;2023-03-25T06:37:15;23.45;;;4.20;;
78622;SDS011;67943;54.412;9.502;2023-03-25T06:42:18;26.67;;;6.28;;
78622;SDS011;67943;54.412;9.502;2023-03-25T06:47:20;27.98;;;4.20;;
78622;SDS011;67943;54.412;9.502;2023-03-25T06:52:21;26.48;;;4.10;;
78622;SDS011;67943;54.412;9.502;2023-03-25T06:57:24;23.10;;;3.47;;
78622;SDS011;67943;54.412;9.502;2023-03-25T07:02:26;22.90;;;4.20;;
78622;SDS011;67943;54.412;9.502;2023-03-25T07:07:27;23.25;;;3.92;;
78622;SDS011;67943;54.412;9.502;2023-03-25T07:12:32;22.33;;;3.95;;
78622;SDS011;67943;54.412;9.502;2023-03-25T07:17:34;23.42;;;3.85;;
78622;SDS011;67943;54.412;9.502;2023-03-25T07:22:35;21.00;;;4.00;;
78622;SDS011;67943;54.412;9.502;2023-03-25T07:27:38;30.35;;;4.32;;
78622;SDS011;67943;54.412;9.502;2023-03-25T07:32:40;21.88;;;3.80;;
78622;SDS011;67943;54.412;9.502;2023-03-25T07:37:43;17.23;;;3.97;;
78622;SDS011;67943;54.412;9.502;2023-03-25T07:42:46;23.50;;;3.17;;
78622;SDS011;67943;54.412;9.502;2023-03-25T07:47:48;17.30;;;3.55;;
78622;SDS011;67943;54.412;9.502;2023-03-25T07:52:50;18.02;;;3.92;;
78622;SDS011;67943;54.412;9.502;2023-03-25T07:57:53;20.58;;;4.25;;
78622;SDS011;67943;54.412;9.502;2023-03-25T08:02:55;19.88;;;3.58;;
78622;SDS011;67943;54.412;9.502;2023-03-25T08:07:57;20.38;;;4.00;;
78622;SDS011;67943;54.412;9.502;2023-03-25T08:13:01;15.57;;;3.88;;
78622;SDS011;67943;54.412;9.502;2023-03-25T08:18:02;14.07;;;3.00;;
78622;SDS011;67943;54.412;9.502;2023-03-25T08:23:05;13.82;;;3.20;;
78622;SDS011;67943;54.412;9.502;2023-03-25T08:28:10;10.13;;;2.25;;
78622;SDS011;67943;54.412;9.502;2023-03-25T08:33:12;9.73;;;1.90;;
78622;SDS011;67943;54.412;9.502;2023-03-25T08:43:16;5.60;;;1.50;;
78622;SDS011;67943;54.412;9.502;2023-03-25T08:48:18;8.07;;;1.80;;
78622;SDS011;67943;54.412;9.502;2023-03-25T08:53:19;9.38;;;1.80;;
78622;SDS011;67943;54.412;9.502;2023-03-25T08:58:22;4.70;;;1.45;;
78622;SDS011;67943;54.412;9.502;2023-03-25T09:03:25;9.52;;;1.70;;
78622;SDS011;67943;54.412;9.502;2023-03-25T09:08:27;13.70;;;3.55;;
78622;SDS011;67943;54.412;9.502;2023-03-25T09:13:29;9.23;;;2.28;;
78622;SDS011;67943;54.412;9.502;2023-03-25T09:18:31;10.02;;;2.17;;
78622;SDS011;67943;54.412;9.502;2023-03-25T09:23:34;13.55;;;2.55;;
78622;SDS011;67943;54.412;9.502;2023-03-25T09:28:37;15.77;;;4.20;;
78622;SDS011;67943;54.412;9.502;2023-03-25T09:33:39;13.70;;;3.40;;
78622;SDS011;67943;54.412;9.502;2023-03-25T09:38:40;14.23;;;3.40;;
78622;SDS011;67943;54.412;9.502;2023-03-25T09:43:47;14.30;;;2.63;;
78622;SDS011;67943;54.412;9.502;2023-03-25T09:48:55;11.05;;;2.53;;
78622;SDS011;67943;54.412;9.502;2023-03-25T09:53:59;16.52;;;3.88;;
78622;SDS011;67943;54.412;9.502;2023-03-25T09:59:06;17.38;;;3.63;;
78622;SDS011;67943;54.412;9.502;2023-03-25T10:04:20;14.52;;;3.90;;
78622;SDS011;67943;54.412;9.502;2023-03-25T10:09:47;19.95;;;3.80;;
78622;SDS011;67943;54.412;9.502;2023-03-25T10:14:58;9.40;;;2.60;;
78622;SDS011;67943;54.412;9.502;2023-03-25T10:20:10;12.45;;;2.45;;
78622;SDS011;67943;54.412;9.502;2023-03-25T10:25:19;11.77;;;2.92;;
78622;SDS011;67943;54.412;9.502;2023-03-25T10:30:26;10.40;;;1.95;;
78622;SDS011;67943;54.412;9.502;2023-03-25T10:35:30;17.70;;;3.72;;
78622;SDS011;67943;54.412;9.502;2023-03-25T10:40:37;12.02;;;3.10;;
78622;SDS011;67943;54.412;9.502;2023-03-25T10:45:45;8.60;;;2.83;;
78622;SDS011;67943;54.412;9.502;2023-03-25T10:50:48;19.80;;;3.45;;
78622;SDS011;67943;54.412;9.502;2023-03-25T10:55:53;27.08;;;3.83;;
78622;SDS011;67943;54.412;9.502;2023-03-25T11:00:58;23.65;;;3.95;;
78622;SDS011;67943;54.412;9.502;2023-03-25T11:06:00;24.83;;;4.03;;
78622;SDS011;67943;54.412;9.502;2023-03-25T11:11:03;16.23;;;4.15;;
78622;SDS011;67943;54.412;9.502;2023-03-25T11:16:09;26.80;;;3.95;;
78622;SDS011;67943;54.412;9.502;2023-03-25T11:21:12;22.40;;;3.53;;
78622;SDS011;67943;54.412;9.502;2023-03-25T11:26:17;23.95;;;4.03;;
78622;SDS011;67943;54.412;9.502;2023-03-25T11:31:22;17.25;;;3.42;;
78622;SDS011;67943;54.412;9.502;2023-03-25T11:36:26;23.40;;;3.40;;
78622;SDS011;67943;54.412;9.502;2023-03-25T11:41:30;21.25;;;3.42;;
78622;SDS011;67943;54.412;9.502;2023-03-25T11:46:35;21.00;;;3.53;;
78622;SDS011;67943;54.412;9.502;2023-03-25T11:51:42;17.30;;;3.15;;
78622;SDS011;67943;54.412;9.502;2023-03-25T11:56:44;19.45;;;4.22;;
78622;SDS011;67943;54.412;9.502;2023-03-25T12:01:51;22.63;;;3.78;;
78622;SDS011;67943;54.412;9.502;2023-03-25T12:07:05;20.13;;;3.15;;
78622;SDS011;67943;54.412;9.502;2023-03-25T12:12:15;16.98;;;2.85;;
78622;SDS011;67943;54.412;9.502;2023-03-25T12:17:35;21.07;;;4.13;;
78622;SDS011;67943;54.412;9.502;2023-03-25T12:22:47;22.60;;;3.08;;
78622;SDS011;67943;54.412;9.502;2023-03-25T12:28:07;12.88;;;2.58;;
78622;SDS011;67943;54.412;9.502;2023-03-25T12:33:25;14.43;;;2.28;;
78622;SDS011;67943;54.412;9.502;2023-03-25T12:38:40;10.55;;;2.05;;
78622;SDS011;67943;54.412;9.502;2023-03-25T12:43:56;8.98;;;1.85;;
78622;SDS011;67943;54.412;9.502;2023-03-25T12:49:05;10.50;;;1.77;;
78622;SDS011;67943;54.412;9.502;2023-03-25T12:54:23;19.98;;;2.40;;
78622;SDS011;67943;54.412;9.502;2023-03-25T13:05:03;21.95;;;2.70;;
78622;SDS011;67943;54.412;9.502;2023-03-25T13:10:16;20.83;;;3.65;;
78622;SDS011;67943;54.412;9.502;2023-03-25T13:15:20;19.50;;;3.38;;
78622;SDS011;67943;54.412;9.502;2023-03-25T13:20:26;23.95;;;3.58;;
78622;SDS011;67943;54.412;9.502;2023-03-25T13:25:30;18.15;;;3.08;;
78622;SDS011;67943;54.412;9.502;2023-03-25T13:30:37;18.15;;;3.45;;
78622;SDS011;67943;54.412;9.502;2023-03-25T13:35:43;20.75;;;4.00;;
78622;SDS011;67943;54.412;9.502;2023-03-25T13:40:49;17.08;;;3.38;;
78622;SDS011;67943;54.412;9.502;2023-03-25T13:45:57;17.75;;;3.35;;
78622;SDS011;67943;54.412;9.502;2023-03-25T13:51:04;21.75;;;3.88;;
78622;SDS011;67943;54.412;9.502;2023-03-25T13:56:20;17.67;;;3.38;;
78622;SDS011;67943;54.412;9.502;2023-03-25T14:01:47;12.98;;;2.90;;
78622;SDS011;67943;54.412;9.502;2023-03-25T14:07:05;18.75;;;3.90;;
78622;SDS011;67943;54.412;9.502;2023-03-25T14:12:21;18.73;;;3.58;;
78622;SDS011;67943;54.412;9.502;2023-03-25T14:17:28;17.83;;;2.90;;
78622;SDS011;67943;54.412;9.502;2023-03-25T14:22:34;19.35;;;3.45;;
78622;SDS011;67943;54.412;9.502;2023-03-25T14:27:38;19.05;;;2.97;;
78622;SDS011;67943;54.412;9.502;2023-03-25T14:32:40;12.98;;;2.40;;
78622;SDS011;67943;54.412;9.502;2023-03-25T14:37:45;16.33;;;2.92;;
78622;SDS011;67943;54.412;9.502;2023-03-25T14:42:56;20.23;;;4.05;;
78622;SDS011;67943;54.412;9.502;2023-03-25T14:47:59;19.95;;;3.40;;
78622;SDS011;67943;54.412;9.502;2023-03-25T14:53:02;17.15;;;2.97;;
78622;SDS011;67943;54.412;9.502;2023-03-25T14:58:19;19.65;;;3.90;;
78622;SDS011;67943;54.412;9.502;2023-03-25T15:03:27;17.45;;;3.70;;
78622;SDS011;67943;54.412;9.502;2023-03-25T15:08:35;19.85;;;3.30;;
78622;SDS011;67943;54.412;9.502;2023-03-25T15:13:40;17.88;;;3.20;;
78622;SDS011;67943;54.412;9.502;2023-03-25T15:18:59;24.48;;;3.72;;
78622;SDS011;67943;54.412;9.502;2023-03-25T15:24:09;16.17;;;2.92;;
78622;SDS011;67943;54.412;9.502;2023-03-25T15:34:52;16.98;;;2.58;;
78622;SDS011;67943;54.412;9.502;2023-03-25T15:40:11;15.73;;;3.00;;
78622;SDS011;67943;54.412;9.502;2023-03-25T15:45:33;30.05;;;4.30;;
78622;SDS011;67943;54.412;9.502;2023-03-25T15:50:53;26.30;;;3.70;;
78622;SDS011;67943;54.412;9.502;2023-03-25T15:56:08;20.67;;;4.40;;
78622;SDS011;67943;54.412;9.502;2023-03-25T16:01:13;18.42;;;3.53;;
78622;SDS011;67943;54.412;9.502;2023-03-25T16:06:21;19.63;;;3.20;;
78622;SDS011;67943;54.412;9.502;2023-03-25T16:11:26;13.63;;;3.35;;
78622;SDS011;67943;54.412;9.502;2023-03-25T16:16:28;19.77;;;3.30;;
78622;SDS011;67943;54.412;9.502;2023-03-25T16:21:34;19.45;;;4.93;;
78622;SDS011;67943;54.412;9.502;2023-03-25T16:26:38;21.45;;;3.88;;
78622;SDS011;67943;54.412;9.502;2023-03-25T16:31:48;23.17;;;5.30;;
78622;SDS011;67943;54.412;9.502;2023-03-25T16:36:52;19.83;;;5.13;;
78622;SDS011;67943;54.412;9.502;2023-03-25T16:42:00;17.75;;;4.63;;
78622;SDS011;67943;54.412;9.502;2023-03-25T16:47:05;16.45;;;4.00;;
78622;SDS011;67943;54.412;9.502;2023-03-25T16:52:08;16.73;;;4.43;;
78622;SDS011;67943;54.412;9.502;2023-03-25T16:57:15;16.95;;;3.17;;
78622;SDS011;67943;54.412;9.502;2023-03-25T17:02:23;14.65;;;4.63;;
78622;SDS011;67943;54.412;9.502;2023-03-25T17:07:27;16.42;;;3.58;;
78622;SDS011;67943;54.412;9.502;2023-03-25T17:12:30;15.70;;;3.60;;
78622;SDS011;67943;54.412;9.502;2023-03-25T17:17:39;21.35;;;3.20;;
78622;SDS011;67943;54.412;9.502;2023-03-25T17:22:56;12.32;;;2.75;;
78622;SDS011;67943;54.412;9.502;2023-03-25T17:28:05;13.82;;;2.35;;
78622;SDS011;67943;54.412;9.502;2023-03-25T17:33:27;15.07;;;4.10;;
78622;SDS011;67943;54.412;9.502;2023-03-25T17:38:34;18.33;;;4.82;;
78622;SDS011;67943;54.412;9.502;2023-03-25T17:43:45;13.13;;;4.03;;
78622;SDS011;67943;54.412;9.502;2023-03-25T17:48:49;15.77;;;4.60;;
78622;SDS011;67943;54.412;9.502;2023-03-25T17:53:52;19.23;;;4.03;;
78622;SDS011;67943;54.412;9.502;2023-03-25T17:58:57;17.13;;;2.60;;
78622;SDS011;67943;54.412;9.502;2023-03-25T18:04:00;16.98;;;2.90;;
78622;SDS011;67943;54.412;9.502;2023-03-25T18:09:01;23.17;;;3.33;;
78622;SDS011;67943;54.412;9.502;2023-03-25T18:14:05;23.08;;;4.22;;
78622;SDS011;67943;54.412;9.502;2023-03-25T18:19:08;20.58;;;4.40;;
78622;SDS011;67943;54.412;9.502;2023-03-25T18:24:13;24.63;;;4.85;;
78622;SDS011;67943;54.412;9.502;2023-03-25T18:29:18;25.98;;;4.55;;
78622;SDS011;67943;54.412;9.502;2023-03-25T18:34:22;32.35;;;5.32;;
78622;SDS011;67943;54.412;9.502;2023-03-25T18:39:25;17.75;;;4.28;;
78622;SDS011;67943;54.412;9.502;2023-03-25T18:44:28;25.50;;;4.35;;
78622;SDS011;67943;54.412;9.502;2023-03-25T18:49:30;22.25;;;4.75;;
78622;SDS011;67943;54.412;9.502;2023-03-25T18:54:31;13.32;;;3.08;;
78622;SDS011;67943;54.412;9.502;2023-03-25T18:59:34;14.60;;;3.92;;
78622;SDS011;67943;54.412;9.502;2023-03-25T19:04:36;17.30;;;4.30;;
78622;SDS011;67943;54.412;9.502;2023-03-25T19:09:37;16.08;;;3.53;;
78622;SDS011;67943;54.412;9.502;2023-03-25T19:14:40;19.30;;;4.30;;
78622;SDS011;67943;54.412;9.502;2023-03-25T19:19:42;23.58;;;3.38;;
78622;SDS011;67943;54.412;9.502;2023-03-25T19:24:43;15.57;;;3.67;;
78622;SDS011;67943;54.412;9.502;2023-03-25T19:29:47;11.60;;;2.47;;
78622;SDS011;67943;54.412;9.502;2023-03-25T19:34:52;9.00;;;2.28;;
78622;SDS011;67943;54.412;9.502;2023-03-25T19:39:55;17.90;;;3.60;;
78622;SDS011;67943;54.412;9.502;2023-03-25T19:44:58;13.98;;;3.17;;
78622;SDS011;67943;54.412;9.502;2023-03-25T19:49:59;15.80;;;2.92;;
78622;SDS011;67943;54.412;9.502;2023-03-25T19:55:01;15.27;;;3.13;;
78622;SDS011;67943;54.412;9.502;2023-03-25T20:00:05;13.77;;;2.17;;
78622;SDS011;67943;54.412;9.502;2023-03-25T20:05:12;11.70;;;3.05;;
78622;SDS011;67943;54.412;9.502;2023-03-25T20:10:15;11.35;;;2.30;;
78622;SDS011;67943;54.412;9.502;2023-03-25T20:15:20;7.55;;;1.73;;
78622;SDS011;67943;54.412;9.502;2023-03-25T20:20:23;6.90;;;2.40;;
78622;SDS011;67943;54.412;9.502;2023-03-25T20:25:25;6.63;;;1.80;;
78622;SDS011;67943;54.412;9.502;2023-03-25T20:30:28;11.50;;;2.38;;
78622;SDS011;67943;54.412;9.502;2023-03-25T20:35:31;14.05;;;2.35;;
78622;SDS011;67943;54.412;9.502;2023-03-25T20:40:33;13.98;;;2.67;;
78622;SDS011;67943;54.412;9.502;2023-03-25T20:45:36;12.30;;;2.55;;
78622;SDS011;67943;54.412;9.502;2023-03-25T20:50:37;8.43;;;2.90;;
78622;SDS011;67943;54.412;9.502;2023-03-25T20:55:39;10.15;;;2.92;;
78622;SDS011;67943;54.412;9.502;2023-03-25T21:00:42;22.55;;;4.10;;
78622;SDS011;67943;54.412;9.502;2023-03-25T21:05:45;16.27;;;3.90;;
78622;SDS011;67943;54.412;9.502;2023-03-25T21:10:47;16.08;;;3.65;;
78622;SDS011;67943;54.412;9.502;2023-03-25T21:15:52;20.80;;;4.22;;
78622;SDS011;67943;54.412;9.502;2023-03-25T21:20:54;20.45;;;4.70;;
78622;SDS011;67943;54.412;9.502;2023-03-25T21:25:57;26.80;;;4.70;;
78622;SDS011;67943;54.412;9.502;2023-03-25T21:31:02;30.33;;;5.10;;
78622;SDS011;67943;54.412;9.502;2023-03-25T21:36:06;26.33;;;4.72;;
78622;SDS011;67943;54.412;9.502;2023-03-25T21:41:08;17.05;;;4.35;;
78622;SDS011;67943;54.412;9.502;2023-03-25T21:46:11;19.00;;;4.40;;
78622;SDS011;67943;54.412;9.502;2023-03-25T21:51:14;21.63;;;4.70;;
78622;SDS011;67943;54.412;9.502;2023-03-25T21:56:17;18.52;;;4.45;;
78622;SDS011;67943;54.412;9.502;2023-03-25T22:01:22;19.88;;;4.75;;
78622;SDS011;67943;54.412;9.502;2023-03-25T22:06:27;24.80;;;5.35;;
78622;SDS011;67943;54.412;9.502;2023-03-25T22:11:30;20.98;;;4.90;;
78622;SDS011;67943;54.412;9.502;2023-03-25T22:16:35;21.63;;;5.13;;
78622;SDS011;67943;54.412;9.502;2023-03-25T22:21:36;28.80;;;6.35;;
78622;SDS011;67943;54.412;9.502;2023-03-25T22:26:38;15.90;;;4.40;;
78622;SDS011;67943;54.412;9.502;2023-03-25T22:31:43;26.42;;;5.60;;
78622;SDS011;67943;54.412;9.502;2023-03-25T22:36:45;21.83;;;4.57;;
78622;SDS011;67943;54.412;9.502;2023-03-25T22:41:49;16.48;;;4.65;;
78622;SDS011;67943;54.412;9.502;2023-03-25T22:46:52;14.10;;;3.78;;
78622;SDS011;67943;54.412;9.502;2023-03-25T22:51:54;15.10;;;3.97;;
78622;SDS011;67943;54.412;9.502;2023-03-25T22:56:55;19.73;;;4.43;;
78622;SDS011;67943;54.412;9.502;2023-03-25T23:01:58;17.77;;;3.88;;
78622;SDS011;67943;54.412;9.502;2023-03-25T23:07:00;24.67;;;5.38;;
78622;SDS011;67943;54.412;9.502;2023-03-25T23:12:02;17.85;;;4.70;;
78622;SDS011;67943;54.412;9.502;2023-03-25T23:17:05;18.75;;;4.18;;
78622;SDS011;67943;54.412;9.502;2023-03-25T23:22:06;16.00;;;3.83;;
78622;SDS011;67943;54.412;9.502;2023-03-25T23:27:08;15.23;;;4.07;;
78622;SDS011;67943;54.412;9.502;2023-03-25T23:32:13;12.85;;;2.90;;
78622;SDS011;67943;54.412;9.502;2023-03-25T23:37:15;11.85;;;2.85;;
78622;SDS011;67943;54.412;9.502;2023-03-25T23:42:17;12.18;;;2.70;;
78622;SDS011;67943;54.412;9.502;2023-03-25T23:47:20;14.00;;;3.13;;
78622;SDS011;67943;54.412;9.502;2023-03-25T23:52:22;9.13;;;2.40;;
78622;SDS011;67943;54.412;9.502;2023-03-25T23:57:23;12.15;;;2.55;;
